Time;durP1;ratioP1;P1;durP2;ratioP2;P2;SDS_P1;SDS_P2;PMS_P1;PMS_P2;Temp;Humidity;BMP_temperature;BMP_pressure;BME280_temperature;BME280_humidity;BME280_pressure;Samples;Min_cycle;Max_cycle;Signal;HPM_P1;HPM_P2
2022/07/07 00:01:46;;;;;;;1.88;0.75;;;17.80;99.90;;;;;;5027817;28;20041;-78
2022/07/07 00:04:12;;;;;;;2.50;0.68;;;17.90;99.90;;;;;;5016513;28;20040;-74
2022/07/07 00:06:38;;;;;;;3.13;0.80;;;17.80;99.90;;;;;;5013135;28;20064;-78
2022/07/07 00:09:05;;;;;;;3.72;1.00;;;17.80;99.90;;;;;;4995363;28;20030;-74
2022/07/07 00:11:31;;;;;;;2.97;0.70;;;17.70;99.90;;;;;;4995849;28;20044;-77
2022/07/07 00:13:58;;;;;;;1.85;0.90;;;17.80;99.90;;;;;;5012171;28;20201;-77
2022/07/07 00:16:24;;;;;;;5.85;1.25;;;17.80;99.90;;;;;;4998996;28;20030;-73
2022/07/07 00:18:50;;;;;;;3.00;1.27;;;17.80;99.90;;;;;;4995312;28;22925;-74
2022/07/07 00:21:16;;;;;;;2.28;0.70;;;17.80;99.90;;;;;;5013420;28;20095;-76
2022/07/07 00:23:42;;;;;;;2.53;1.20;;;17.80;99.90;;;;;;4995931;28;20116;-75
2022/07/07 00:26:08;;;;;;;3.28;1.15;;;17.80;99.90;;;;;;5011967;28;20458;-73
2022/07/07 00:28:34;;;;;;;2.17;0.80;;;17.80;99.90;;;;;;5012054;28;20113;-74
2022/07/07 00:31:00;;;;;;;3.33;0.82;;;17.70;99.90;;;;;;5010890;28;20026;-74
2022/07/07 00:33:25;;;;;;;2.00;1.08;;;17.80;99.90;;;;;;5027370;28;20037;-75
2022/07/07 00:35:51;;;;;;;2.33;1.25;;;17.80;99.90;;;;;;5009344;28;20033;-75
2022/07/07 00:38:17;;;;;;;1.63;0.70;;;17.80;99.90;;;;;;5010787;28;20057;-73
2022/07/07 00:40:48;;;;;;;3.17;1.23;;;17.80;99.90;;;;;;4993806;28;20632;-73
2022/07/07 00:43:13;;;;;;;3.45;1.45;;;17.80;99.90;;;;;;5013490;28;20094;-74
2022/07/07 00:45:39;;;;;;;2.95;1.08;;;17.80;99.90;;;;;;5011341;28;20466;-73
2022/07/07 00:48:06;;;;;;;2.20;1.20;;;17.80;99.90;;;;;;5010117;28;20162;-73
2022/07/07 00:50:32;;;;;;;4.75;1.83;;;17.80;99.90;;;;;;4998514;28;20475;-74
2022/07/07 00:52:57;;;;;;;3.78;1.48;;;17.80;99.90;;;;;;5009821;28;20108;-74
2022/07/07 00:55:23;;;;;;;3.15;1.23;;;17.80;99.90;;;;;;5015067;28;20104;-73
2022/07/07 00:57:49;;;;;;;3.85;1.42;;;17.80;99.90;;;;;;4996618;28;20080;-75
2022/07/07 01:00:15;;;;;;;4.15;2.03;;;17.80;99.90;;;;;;5025030;28;20417;-75
2022/07/07 01:02:44;;;;;;;2.38;1.00;;;17.80;99.90;;;;;;5025584;28;20044;-74
2022/07/07 01:05:11;;;;;;;4.68;2.08;;;17.80;99.90;;;;;;5010423;28;20386;-74
2022/07/07 01:07:38;;;;;;;2.72;1.55;;;17.80;99.90;;;;;;5009753;28;20117;-75
2022/07/07 01:10:05;;;;;;;3.08;1.70;;;17.80;99.90;;;;;;5009947;28;20037;-74
2022/07/07 01:12:37;;;;;;;4.57;2.30;;;17.80;99.90;;;;;;4992906;28;20021;-74
2022/07/07 01:15:08;;;;;;;3.10;1.15;;;17.80;99.90;;;;;;4989091;28;20092;-75
2022/07/07 01:17:35;;;;;;;2.97;1.20;;;17.80;99.90;;;;;;5025440;28;20449;-74
2022/07/07 01:20:02;;;;;;;4.10;2.00;;;17.80;99.90;;;;;;5013652;28;20116;-74
2022/07/07 01:22:31;;;;;;;5.45;3.47;;;17.80;99.90;;;;;;5009709;28;20036;-75
2022/07/07 01:24:57;;;;;;;5.53;2.87;;;17.80;99.90;;;;;;5009873;28;20059;-75
2022/07/07 01:27:24;;;;;;;5.00;3.22;;;17.90;99.90;;;;;;5010875;28;20049;-74
2022/07/07 01:29:54;;;;;;;6.03;3.92;;;17.90;99.90;;;;;;5010246;28;20042;-75
2022/07/07 01:32:21;;;;;;;8.07;4.18;;;17.80;99.90;;;;;;4993059;28;20037;-74
2022/07/07 01:34:48;;;;;;;7.47;3.58;;;17.80;99.90;;;;;;5009388;28;20033;-74
2022/07/07 01:37:14;;;;;;;11.30;5.55;;;17.80;99.90;;;;;;5011649;28;20171;-75
2022/07/07 01:39:41;;;;;;;5.95;4.03;;;17.80;99.90;;;;;;5008376;28;20061;-74
2022/07/07 01:42:08;;;;;;;8.50;4.75;;;17.70;99.90;;;;;;5015027;28;20045;-74
2022/07/07 01:44:35;;;;;;;6.20;3.95;;;17.70;99.90;;;;;;5008643;28;20087;-73
2022/07/07 01:47:01;;;;;;;9.63;4.78;;;17.70;99.90;;;;;;4997128;28;20026;-74
2022/07/07 01:49:29;;;;;;;6.57;3.65;;;17.70;99.90;;;;;;5011728;28;20445;-74
2022/07/07 01:51:54;;;;;;;6.60;3.35;;;17.70;99.90;;;;;;4993743;28;20044;-73
2022/07/07 01:54:20;;;;;;;4.82;4.07;;;17.70;99.90;;;;;;5009050;28;20034;-74
2022/07/07 01:56:46;;;;;;;5.65;3.88;;;17.70;99.90;;;;;;4993096;28;20037;-74
2022/07/07 01:59:12;;;;;;;3.42;2.45;;;17.70;99.90;;;;;;5008358;28;20258;-74
2022/07/07 02:01:38;;;;;;;5.72;3.13;;;17.70;99.90;;;;;;5025047;28;20594;-74
2022/07/07 02:04:04;;;;;;;7.35;3.47;;;17.70;99.90;;;;;;5008984;28;20038;-75
2022/07/07 02:06:30;;;;;;;4.53;3.33;;;17.70;99.90;;;;;;5009577;28;20037;-74
2022/07/07 02:08:55;;;;;;;6.72;3.85;;;17.70;99.90;;;;;;5013658;28;20029;-74
2022/07/07 02:11:21;;;;;;;7.93;4.95;;;17.70;99.90;;;;;;5010905;28;20064;-75
2022/07/07 02:13:50;;;;;;;9.40;3.95;;;17.70;99.90;;;;;;5008523;28;20502;-74
2022/07/07 02:16:18;;;;;;;6.45;3.65;;;17.80;99.90;;;;;;5009731;28;20037;-74
2022/07/07 02:18:45;;;;;;;6.55;3.53;;;17.80;99.90;;;;;;5009459;28;20052;-73
2022/07/07 02:21:12;;;;;;;7.20;3.80;;;17.80;99.90;;;;;;5010292;28;20390;-75
2022/07/07 02:23:40;;;;;;;5.38;2.95;;;17.80;99.90;;;;;;4994378;28;20041;-73
2022/07/07 02:26:06;;;;;;;5.70;2.28;;;17.80;99.90;;;;;;4993527;28;20022;-75
2022/07/07 02:28:32;;;;;;;6.57;3.13;;;17.80;99.90;;;;;;5011349;28;20078;-75
2022/07/07 02:30:58;;;;;;;6.15;2.78;;;17.80;99.90;;;;;;5017909;28;20029;-75
2022/07/07 02:33:25;;;;;;;9.07;3.67;;;17.80;99.90;;;;;;5013778;28;20065;-73
2022/07/07 02:35:51;;;;;;;4.72;2.72;;;17.80;99.90;;;;;;5012329;28;20072;-75
2022/07/07 02:38:18;;;;;;;5.38;3.00;;;17.70;99.90;;;;;;5012770;28;20046;-75
2022/07/07 02:40:44;;;;;;;5.47;2.42;;;17.80;99.90;;;;;;5015239;28;20033;-74
2022/07/07 02:43:15;;;;;;;4.53;2.10;;;17.80;99.90;;;;;;5013433;28;20545;-73
2022/07/07 02:45:42;;;;;;;2.50;1.70;;;17.80;99.90;;;;;;5008560;28;20673;-74
2022/07/07 02:48:09;;;;;;;5.43;2.20;;;17.80;99.90;;;;;;4995300;28;20600;-74
2022/07/07 02:50:35;;;;;;;6.13;2.80;;;17.80;99.90;;;;;;5012845;28;20025;-74
2022/07/07 02:53:02;;;;;;;7.07;2.63;;;17.80;99.90;;;;;;4995374;28;20037;-74
2022/07/07 02:55:28;;;;;;;6.90;2.83;;;17.70;99.90;;;;;;4998731;28;20160;-73
2022/07/07 02:57:54;;;;;;;5.63;2.00;;;17.60;99.90;;;;;;5011203;28;20030;-74
2022/07/07 03:00:19;;;;;;;4.93;1.30;;;17.50;99.90;;;;;;5014329;28;20029;-73
2022/07/07 03:02:45;;;;;;;2.25;0.60;;;17.20;99.90;;;;;;5013695;28;20083;-74
2022/07/07 03:05:13;;;;;;;2.67;0.50;;;17.00;99.90;;;;;;5008052;28;20064;-74
2022/07/07 03:07:39;;;;;;;1.38;0.50;;;16.70;99.90;;;;;;5001250;28;20041;-74
2022/07/07 03:10:06;;;;;;;1.67;0.43;;;16.50;99.90;;;;;;5028344;28;20033;-73
2022/07/07 03:12:32;;;;;;;1.05;0.40;;;16.50;99.90;;;;;;5012643;28;20048;-74
2022/07/07 03:14:58;;;;;;;1.90;0.45;;;16.40;99.90;;;;;;5011319;28;20040;-74
2022/07/07 03:17:24;;;;;;;3.35;0.50;;;16.40;99.90;;;;;;5017554;28;20034;-74
2022/07/07 03:19:50;;;;;;;2.65;0.60;;;16.30;99.90;;;;;;4994733;28;20064;-74
2022/07/07 03:22:16;;;;;;;2.97;0.50;;;16.30;99.90;;;;;;5027639;28;20068;-74
2022/07/07 03:24:41;;;;;;;2.20;0.60;;;16.30;99.90;;;;;;5027826;28;20095;-74
2022/07/07 03:27:07;;;;;;;2.78;0.57;;;16.30;99.90;;;;;;5026721;28;20025;-73
2022/07/07 03:29:33;;;;;;;2.85;0.50;;;16.30;99.90;;;;;;5000423;28;20379;-75
2022/07/07 03:31:59;;;;;;;3.58;0.60;;;16.20;99.90;;;;;;5013032;28;20375;-73
2022/07/07 03:34:25;;;;;;;2.47;0.70;;;16.30;99.90;;;;;;5011557;28;20041;-75
2022/07/07 03:36:50;;;;;;;2.33;0.70;;;16.30;99.90;;;;;;5000077;28;20037;-74
2022/07/07 03:39:16;;;;;;;2.55;0.65;;;16.30;99.90;;;;;;5011898;28;20049;-74
2022/07/07 03:41:42;;;;;;;2.33;0.98;;;16.20;99.90;;;;;;4992766;28;20053;-73
2022/07/07 03:44:07;;;;;;;4.13;0.50;;;16.20;99.90;;;;;;5010247;28;20034;-74
2022/07/07 03:46:33;;;;;;;2.85;0.60;;;16.30;99.90;;;;;;5007867;28;20045;-75
2022/07/07 03:48:59;;;;;;;3.45;0.70;;;16.20;99.90;;;;;;5012321;28;20109;-74
2022/07/07 03:51:24;;;;;;;2.63;0.80;;;16.20;99.90;;;;;;5012329;28;20030;-74
2022/07/07 03:53:50;;;;;;;2.78;0.60;;;16.20;99.90;;;;;;5015210;28;20033;-75
2022/07/07 03:56:16;;;;;;;2.65;0.80;;;16.20;99.90;;;;;;5006897;28;20025;-75
2022/07/07 03:58:41;;;;;;;2.95;0.70;;;16.10;99.90;;;;;;5014994;28;20305;-74
2022/07/07 04:01:07;;;;;;;1.63;0.65;;;16.10;99.90;;;;;;5008514;28;20037;-75
2022/07/07 04:03:33;;;;;;;2.78;0.90;;;16.10;99.90;;;;;;5011557;28;20528;-74
2022/07/07 04:05:58;;;;;;;1.75;0.60;;;16.10;99.90;;;;;;5010257;28;20516;-74
2022/07/07 04:08:24;;;;;;;3.88;0.63;;;16.10;99.90;;;;;;4998071;28;20025;-75
2022/07/07 04:10:50;;;;;;;1.92;0.80;;;16.10;99.90;;;;;;5009814;28;20033;-74
2022/07/07 04:13:15;;;;;;;2.33;0.80;;;16.10;99.90;;;;;;5025396;28;20180;-74
2022/07/07 04:15:41;;;;;;;1.75;0.93;;;16.10;99.90;;;;;;5010594;28;20026;-75
2022/07/07 04:18:07;;;;;;;2.33;1.00;;;16.10;99.90;;;;;;5007631;28;20642;-76
2022/07/07 04:20:32;;;;;;;1.95;0.88;;;16.10;99.90;;;;;;5010543;28;20041;-74
2022/07/07 04:22:58;;;;;;;2.17;0.93;;;16.10;99.90;;;;;;4997862;28;20394;-76
2022/07/07 04:25:24;;;;;;;3.63;1.05;;;16.00;99.90;;;;;;5020084;28;20029;-75
2022/07/07 04:27:50;;;;;;;2.35;1.08;;;16.00;99.90;;;;;;5008154;28;20854;-74
2022/07/07 04:30:16;;;;;;;3.72;1.17;;;16.10;99.90;;;;;;5008477;28;20121;-74
2022/07/07 04:32:42;;;;;;;2.58;0.80;;;16.10;99.90;;;;;;4992562;28;20060;-74
2022/07/07 04:35:09;;;;;;;3.83;1.08;;;16.10;99.90;;;;;;5008788;28;20398;-74
2022/07/07 04:37:35;;;;;;;3.28;1.52;;;16.10;99.90;;;;;;5005747;28;20057;-76
2022/07/07 04:40:02;;;;;;;3.85;1.33;;;16.10;99.90;;;;;;5025617;28;20410;-75
2022/07/07 04:42:28;;;;;;;3.53;1.63;;;16.10;99.90;;;;;;5009832;28;20077;-75
2022/07/07 04:44:53;;;;;;;4.45;1.10;;;16.10;99.90;;;;;;4993339;28;20116;-75
2022/07/07 04:47:19;;;;;;;3.60;1.35;;;16.10;99.90;;;;;;4994016;28;20040;-75
2022/07/07 04:49:45;;;;;;;2.70;1.13;;;16.10;99.90;;;;;;4993658;28;20026;-75
2022/07/07 04:52:10;;;;;;;5.85;1.55;;;16.10;99.90;;;;;;4993390;28;20032;-75
2022/07/07 04:54:36;;;;;;;5.00;1.13;;;16.10;99.90;;;;;;5015005;28;20124;-75
2022/07/07 04:57:02;;;;;;;4.65;1.10;;;16.10;99.90;;;;;;5010995;28;20028;-75
2022/07/07 04:59:27;;;;;;;2.45;1.00;;;16.10;99.90;;;;;;5010794;28;20654;-75
2022/07/07 05:01:53;;;;;;;2.08;0.80;;;16.10;99.90;;;;;;5010935;28;20046;-75
2022/07/07 05:04:19;;;;;;;2.65;0.75;;;16.00;99.90;;;;;;4994325;28;20021;-75
2022/07/07 05:06:44;;;;;;;2.92;0.38;;;16.10;99.90;;;;;;5008761;28;20044;-74
2022/07/07 05:09:10;;;;;;;1.80;0.30;;;16.00;99.90;;;;;;5014020;28;20096;-75
2022/07/07 05:11:36;;;;;;;2.50;0.30;;;16.00;99.90;;;;;;4992471;28;20030;-76
2022/07/07 05:14:02;;;;;;;3.72;0.30;;;16.10;99.90;;;;;;4986020;28;20044;-75
2022/07/07 05:16:29;;;;;;;2.35;0.30;;;16.20;99.90;;;;;;5021773;28;20038;-75
2022/07/07 05:18:55;;;;;;;2.10;0.40;;;16.10;99.90;;;;;;5007843;28;20198;-74
2022/07/07 05:21:21;;;;;;;1.02;0.22;;;16.20;99.90;;;;;;5006530;28;20068;-75
2022/07/07 05:23:46;;;;;;;2.38;0.30;;;16.20;99.90;;;;;;5009013;28;20026;-75
2022/07/07 05:26:12;;;;;;;1.88;0.30;;;16.20;99.90;;;;;;5011357;28;20406;-74
2022/07/07 05:28:41;;;;;;;1.95;0.30;;;16.10;99.90;;;;;;5007500;28;20055;-74
2022/07/07 05:31:10;;;;;;;3.50;0.40;;;16.20;99.90;;;;;;5008157;28;20125;-74
2022/07/07 05:33:36;;;;;;;2.03;0.35;;;16.20;99.90;;;;;;5010107;28;20331;-75
2022/07/07 05:36:02;;;;;;;3.22;0.40;;;16.20;99.90;;;;;;5010197;28;20166;-75
2022/07/07 05:38:29;;;;;;;2.78;0.40;;;16.20;99.90;;;;;;5008400;28;20123;-75
2022/07/07 05:40:54;;;;;;;5.63;0.30;;;16.10;99.90;;;;;;5013020;28;20049;-74
2022/07/07 05:43:20;;;;;;;1.45;0.30;;;16.10;99.90;;;;;;5008942;28;20017;-75
2022/07/07 05:45:46;;;;;;;3.92;0.30;;;15.90;99.90;;;;;;5014332;28;20429;-75
2022/07/07 05:48:11;;;;;;;3.33;0.52;;;15.80;99.90;;;;;;5007470;28;20277;-75
2022/07/07 05:50:37;;;;;;;3.58;0.45;;;15.80;99.90;;;;;;5007115;28;20394;-74
2022/07/07 05:53:03;;;;;;;4.45;0.30;;;15.90;99.90;;;;;;5016165;28;20417;-74
2022/07/07 05:55:29;;;;;;;4.55;0.30;;;15.90;99.90;;;;;;5021165;28;20159;-76
2022/07/07 05:57:55;;;;;;;3.40;0.25;;;15.90;99.90;;;;;;5007811;28;20121;-75
2022/07/07 06:00:23;;;;;;;5.85;0.30;;;15.90;99.90;;;;;;5006891;28;20045;-77
2022/07/07 06:02:49;;;;;;;2.45;0.40;;;16.00;99.90;;;;;;4972479;28;20037;-76
2022/07/07 06:05:16;;;;;;;6.25;0.55;;;16.10;99.90;;;;;;5010185;28;20048;-75
2022/07/07 06:07:42;;;;;;;6.05;0.32;;;16.20;99.90;;;;;;5007149;28;20030;-78
2022/07/07 06:10:10;;;;;;;5.65;0.40;;;16.30;99.90;;;;;;5004584;28;20485;-74
2022/07/07 06:12:36;;;;;;;3.60;0.30;;;16.30;99.90;;;;;;4989113;28;20055;-74
2022/07/07 06:15:02;;;;;;;4.30;0.38;;;16.40;99.90;;;;;;5005096;28;20088;-75
2022/07/07 06:17:27;;;;;;;2.55;0.30;;;16.40;99.90;;;;;;5008645;28;20029;-74
2022/07/07 06:19:53;;;;;;;3.13;0.25;;;16.30;99.90;;;;;;5004333;28;20037;-74
2022/07/07 06:22:19;;;;;;;4.25;0.40;;;16.30;99.90;;;;;;5012385;28;20034;-74
2022/07/07 06:24:44;;;;;;;7.25;0.98;;;16.40;99.90;;;;;;5004767;28;20466;-74
2022/07/07 06:27:10;;;;;;;6.05;1.00;;;16.40;99.90;;;;;;4992081;28;20025;-75
2022/07/07 06:29:36;;;;;;;5.50;0.30;;;16.30;99.90;;;;;;5006011;28;20029;-74
2022/07/07 06:32:03;;;;;;;5.30;0.60;;;16.30;99.90;;;;;;5011905;28;20045;-75
2022/07/07 06:34:28;;;;;;;5.18;0.50;;;16.30;99.90;;;;;;4991048;28;20080;-74
2022/07/07 06:36:54;;;;;;;3.45;0.40;;;16.20;99.90;;;;;;5008206;28;20156;-74
2022/07/07 06:39:20;;;;;;;3.45;0.30;;;16.10;99.90;;;;;;5007740;28;20136;-75
2022/07/07 06:41:45;;;;;;;3.78;0.35;;;15.80;99.90;;;;;;5009135;28;20049;-75
2022/07/07 06:44:11;;;;;;;3.70;0.30;;;15.90;99.90;;;;;;5009030;28;20033;-74
2022/07/07 06:46:37;;;;;;;5.70;0.40;;;15.90;99.90;;;;;;5009935;28;20311;-75
2022/07/07 06:49:03;;;;;;;6.47;0.40;;;16.10;99.90;;;;;;5008023;28;20345;-75
2022/07/07 06:51:29;;;;;;;6.15;0.30;;;16.20;99.90;;;;;;5006962;28;20049;-77
2022/07/07 06:53:55;;;;;;;4.40;0.40;;;16.20;99.90;;;;;;5007432;28;20037;-74
2022/07/07 06:56:20;;;;;;;6.50;0.57;;;16.30;99.90;;;;;;5004675;28;20046;-74
2022/07/07 06:58:46;;;;;;;6.18;0.50;;;16.60;99.90;;;;;;5009902;28;20025;-74
2022/07/07 07:01:12;;;;;;;3.65;0.40;;;16.50;99.90;;;;;;5009572;28;20406;-75
2022/07/07 07:03:37;;;;;;;3.55;0.20;;;16.40;99.90;;;;;;5005868;28;20735;-75
2022/07/07 07:06:03;;;;;;;3.47;0.30;;;16.50;99.90;;;;;;5005712;28;20031;-73
2022/07/07 07:08:29;;;;;;;4.55;0.20;;;16.50;99.90;;;;;;5007938;28;20022;-75
2022/07/07 07:10:54;;;;;;;3.67;0.20;;;16.40;99.90;;;;;;5006020;28;20486;-76
2022/07/07 07:13:20;;;;;;;7.15;0.38;;;16.50;99.90;;;;;;5006883;28;20034;-74
2022/07/07 07:15:45;;;;;;;3.15;0.28;;;16.70;99.90;;;;;;5007025;28;20109;-74
2022/07/07 07:18:12;;;;;;;3.78;0.35;;;16.70;99.90;;;;;;5007922;28;20037;-74
2022/07/07 07:20:40;;;;;;;4.22;0.40;;;16.60;99.90;;;;;;5008665;28;20045;-74
2022/07/07 07:23:06;;;;;;;2.60;0.20;;;16.60;99.90;;;;;;5009890;28;20050;-74
2022/07/07 07:25:31;;;;;;;5.60;0.22;;;16.60;99.90;;;;;;5007846;28;20080;-75
2022/07/07 07:27:57;;;;;;;6.95;0.40;;;16.90;99.90;;;;;;5019561;28;20105;-75
2022/07/07 07:30:23;;;;;;;4.03;0.30;;;16.80;99.90;;;;;;5010392;28;22785;-73
2022/07/07 07:32:48;;;;;;;3.65;0.20;;;16.80;99.90;;;;;;5008859;28;20029;-73
2022/07/07 07:35:14;;;;;;;4.55;0.30;;;16.90;99.90;;;;;;5003735;28;20069;-74
2022/07/07 07:37:40;;;;;;;3.60;0.30;;;17.50;99.90;;;;;;5014542;28;20057;-74
2022/07/07 07:40:10;;;;;;;5.13;0.35;;;17.50;99.90;;;;;;5010469;28;20112;-73
2022/07/07 07:42:38;;;;;;;2.65;0.45;;;17.00;99.90;;;;;;5011375;28;20117;-74
2022/07/07 07:45:10;;;;;;;3.05;0.20;;;17.00;99.90;;;;;;5011460;28;20030;-74
2022/07/07 07:47:46;;;;;;;2.50;0.20;;;17.00;99.90;;;;;;4994764;28;20037;-74
2022/07/07 07:50:17;;;;;;;3.58;0.30;;;17.10;99.90;;;;;;5011187;28;20072;-74
2022/07/07 07:52:44;;;;;;;3.03;0.30;;;17.20;99.90;;;;;;5010560;28;20026;-73
2022/07/07 07:55:13;;;;;;;2.80;0.20;;;17.30;99.90;;;;;;4994977;28;20076;-76
2022/07/07 07:57:39;;;;;;;2.78;0.32;;;17.50;99.90;;;;;;5010823;28;20053;-74
2022/07/07 08:00:08;;;;;;;3.13;0.30;;;17.10;99.90;;;;;;4995001;28;20153;-75
2022/07/07 08:02:38;;;;;;;3.95;0.20;;;16.80;99.90;;;;;;5009947;28;20041;-74
2022/07/07 08:05:04;;;;;;;2.00;0.20;;;16.80;99.90;;;;;;5009427;28;20124;-74
2022/07/07 08:07:30;;;;;;;2.10;0.20;;;16.80;99.90;;;;;;5008297;28;20449;-74
2022/07/07 08:09:55;;;;;;;2.17;0.20;;;16.90;99.90;;;;;;5007856;28;20116;-75
2022/07/07 08:12:21;;;;;;;2.58;0.10;;;16.80;99.90;;;;;;5007039;28;20045;-73
2022/07/07 08:14:47;;;;;;;3.00;0.20;;;16.70;99.90;;;;;;5009419;28;20525;-73
2022/07/07 08:17:12;;;;;;;2.42;0.20;;;16.90;99.90;;;;;;4986615;28;20095;-75
2022/07/07 08:19:38;;;;;;;3.58;0.20;;;17.00;99.90;;;;;;5012212;28;20551;-74
2022/07/07 08:22:04;;;;;;;2.13;0.15;;;17.20;99.90;;;;;;5008268;28;20551;-76
2022/07/07 08:24:30;;;;;;;3.80;0.20;;;17.20;99.90;;;;;;5008921;28;20018;-74
2022/07/07 08:26:55;;;;;;;2.97;0.20;;;17.20;99.90;;;;;;5006677;28;20179;-74
2022/07/07 08:29:21;;;;;;;2.75;0.15;;;17.00;99.90;;;;;;5009333;28;20463;-74
2022/07/07 08:31:47;;;;;;;2.70;0.10;;;16.80;99.90;;;;;;4993491;28;20034;-76
2022/07/07 08:34:12;;;;;;;1.85;0.25;;;16.90;99.90;;;;;;5006550;28;20028;-74
2022/07/07 08:36:38;;;;;;;2.05;0.10;;;17.10;99.90;;;;;;5007088;28;20041;-74
2022/07/07 08:39:04;;;;;;;2.35;0.20;;;17.50;99.90;;;;;;4991616;28;20053;-74
2022/07/07 08:41:30;;;;;;;4.85;0.20;;;17.50;99.90;;;;;;5011953;28;20045;-74
2022/07/07 08:43:56;;;;;;;3.40;0.20;;;17.80;99.90;;;;;;5023324;28;20390;-74
2022/07/07 08:46:22;;;;;;;2.22;0.20;;;17.70;99.90;;;;;;5025655;28;20037;-74
2022/07/07 08:48:48;;;;;;;2.42;0.30;;;17.60;99.90;;;;;;5008870;28;20390;-78
2022/07/07 08:51:17;;;;;;;1.42;0.20;;;17.10;99.90;;;;;;5010520;28;20033;-75
2022/07/07 08:53:46;;;;;;;2.70;0.20;;;16.80;99.90;;;;;;5007531;28;20030;-75
2022/07/07 08:56:12;;;;;;;2.85;0.20;;;17.20;99.90;;;;;;4994046;28;20571;-75
2022/07/07 08:58:39;;;;;;;2.63;0.30;;;17.30;99.90;;;;;;5008511;28;20025;-74
2022/07/07 09:01:06;;;;;;;2.58;0.20;;;17.50;99.90;;;;;;5009539;28;20140;-75
2022/07/07 09:03:32;;;;;;;2.33;0.20;;;17.40;99.90;;;;;;5006838;28;20135;-75
2022/07/07 09:05:59;;;;;;;6.80;0.55;;;17.70;99.90;;;;;;5008142;28;20037;-75
2022/07/07 09:08:26;;;;;;;2.95;0.30;;;17.70;99.90;;;;;;5005521;28;20041;-78
2022/07/07 09:10:53;;;;;;;3.95;0.30;;;17.80;99.90;;;;;;5006406;28;20025;-74
2022/07/07 09:13:29;;;;;;;1.98;0.40;;;17.90;99.90;;;;;;5006235;28;20041;-74
2022/07/07 09:15:57;;;;;;;2.72;0.20;;;18.20;99.90;;;;;;5006136;28;20030;-76
2022/07/07 09:18:36;;;;;;;3.67;0.20;;;18.30;99.90;;;;;;5007385;28;20068;-74
2022/07/07 09:21:04;;;;;;;4.68;0.30;;;18.20;99.90;;;;;;5005538;28;20087;-75
2022/07/07 09:23:30;;;;;;;3.05;0.13;;;18.30;99.90;;;;;;5008725;28;20091;-74
2022/07/07 09:25:56;;;;;;;4.13;0.22;;;18.00;99.90;;;;;;5006181;28;20026;-74
2022/07/07 09:28:27;;;;;;;1.65;0.10;;;17.50;99.90;;;;;;4989770;28;20033;-74
2022/07/07 09:30:54;;;;;;;1.73;0.05;;;17.00;99.90;;;;;;5008073;28;20045;-75
2022/07/07 09:33:25;;;;;;;0.73;0.10;;;16.70;99.90;;;;;;5008079;28;20662;-78
2022/07/07 09:38:39;;;;;;;1.48;0.20;;;16.70;99.90;;;;;;5007428;28;20045;-78
2022/07/07 09:41:13;;;;;;;1.02;0.10;;;16.90;99.90;;;;;;5008076;28;20257;-76
2022/07/07 09:43:51;;;;;;;2.53;0.10;;;17.60;99.90;;;;;;4990281;28;20393;-74
2022/07/07 09:46:28;;;;;;;1.38;0.10;;;17.80;99.90;;;;;;5007912;28;20486;-74
2022/07/07 09:49:00;;;;;;;1.45;0.10;;;18.20;99.90;;;;;;5008038;28;20061;-74
2022/07/07 09:51:33;;;;;;;0.47;0.00;;;18.50;99.90;;;;;;5007886;28;20029;-74
2022/07/07 09:54:10;;;;;;;1.55;0.00;;;18.90;99.90;;;;;;5007025;28;20030;-74
2022/07/07 09:56:44;;;;;;;0.82;0.05;;;19.10;99.90;;;;;;5007769;28;20021;-73
2022/07/07 09:59:22;;;;;;;1.42;0.10;;;18.70;99.90;;;;;;5008683;28;20116;-75
2022/07/07 10:01:49;;;;;;;0.40;0.00;;;18.60;99.90;;;;;;5008898;28;20048;-73
2022/07/07 10:04:19;;;;;;;2.38;0.05;;;18.50;99.90;;;;;;5010204;28;20429;-76
2022/07/07 10:06:45;;;;;;;1.30;0.20;;;18.20;99.90;;;;;;5023849;28;20041;-75
2022/07/07 10:09:18;;;;;;;0.82;0.00;;;18.20;99.90;;;;;;4991524;28;20034;-74
2022/07/07 10:11:46;;;;;;;1.45;0.10;;;18.00;99.90;;;;;;5008070;28;20064;-73
2022/07/07 10:14:24;;;;;;;1.02;0.00;;;17.70;99.90;;;;;;5020295;28;20030;-74
2022/07/07 10:16:52;;;;;;;1.75;0.10;;;17.70;99.90;;;;;;5007916;28;20037;-74
2022/07/07 10:19:25;;;;;;;0.65;0.00;;;17.50;99.90;;;;;;5006968;28;20037;-74
2022/07/07 10:21:55;;;;;;;0.22;0.00;;;17.80;99.90;;;;;;4991303;28;20072;-76
2022/07/07 10:24:22;;;;;;;;;;;18.10;99.90;;;;;;5022183;28;20116;-73
2022/07/07 10:26:53;;;;;;;0.50;0.10;;;18.80;99.90;;;;;;5005213;28;19961;-74
2022/07/07 10:29:50;;;;;;;1.08;0.10;;;19.20;99.90;;;;;;5005659;28;20022;-79
2022/07/07 10:32:32;;;;;;;0.82;0.10;;;19.30;99.90;;;;;;5006083;28;20045;-75
2022/07/07 10:35:04;;;;;;;0.63;0.00;;;18.80;99.90;;;;;;5006816;28;20030;-74
2022/07/07 10:37:47;;;;;;;2.30;0.10;;;18.80;99.90;;;;;;5003645;28;20057;-74
2022/07/07 10:40:20;;;;;;;2.88;0.10;;;18.90;99.90;;;;;;5007183;28;20116;-79
2022/07/07 10:43:05;;;;;;;2.10;0.10;;;18.50;99.90;;;;;;5010818;28;20034;-74
2022/07/07 10:45:32;;;;;;;2.75;0.10;;;18.50;99.90;;;;;;4989054;28;20033;-74
2022/07/07 10:47:58;;;;;;;2.10;0.10;;;18.70;99.90;;;;;;4989634;28;20045;-74
2022/07/07 10:50:30;;;;;;;0.65;0.10;;;19.00;99.90;;;;;;5006334;28;20041;-74
2022/07/07 10:52:57;;;;;;;1.80;0.10;;;19.30;99.90;;;;;;5009670;28;20061;-74
2022/07/07 10:55:50;;;;;;;2.40;0.10;;;19.20;99.90;;;;;;4993830;28;20029;-74
2022/07/07 10:58:55;;;;;;;2.75;0.10;;;18.60;99.90;;;;;;5012340;28;20497;-74
2022/07/07 11:01:22;;;;;;;0.65;0.10;;;18.50;99.90;;;;;;4989605;28;20042;-74
2022/07/07 11:03:47;;;;;;;2.80;0.10;;;18.30;99.90;;;;;;4994220;28;20444;-74
2022/07/07 11:06:13;;;;;;;2.95;0.20;;;17.70;99.90;;;;;;5006122;28;22394;-74
2022/07/07 11:08:39;;;;;;;1.30;0.10;;;17.30;99.90;;;;;;5012363;28;20036;-74
2022/07/07 11:11:06;;;;;;;1.50;0.20;;;17.20;99.90;;;;;;5011652;28;20030;-74
2022/07/07 11:13:37;;;;;;;0.90;0.10;;;17.10;99.90;;;;;;4996683;28;20043;-76
2022/07/07 11:16:10;;;;;;;2.13;0.10;;;17.10;99.90;;;;;;5010700;28;20493;-75
2022/07/07 11:18:36;;;;;;;1.77;0.10;;;17.30;99.90;;;;;;4988777;28;20033;-75
2022/07/07 11:21:04;;;;;;;2.67;0.10;;;17.50;99.90;;;;;;5010027;28;20034;-74
2022/07/07 11:23:52;;;;;;;0.90;0.10;;;18.00;99.90;;;;;;5003722;28;20482;-77
2022/07/07 11:26:20;;;;;;;2.30;0.10;;;18.50;99.90;;;;;;5009694;28;20058;-75
2022/07/07 11:28:46;;;;;;;2.63;0.10;;;18.70;99.90;;;;;;5009852;28;20039;-75
2022/07/07 11:31:12;;;;;;;1.70;0.10;;;18.80;99.90;;;;;;4991710;28;20041;-74
2022/07/07 11:33:41;;;;;;;1.80;0.25;;;19.10;99.90;;;;;;5013704;28;20037;-75
2022/07/07 11:36:11;;;;;;;3.45;0.20;;;18.70;99.90;;;;;;5007229;28;20034;-74
2022/07/07 11:38:37;;;;;;;1.40;0.17;;;18.30;99.90;;;;;;5010537;28;20053;-74
2022/07/07 11:41:04;;;;;;;3.35;0.20;;;18.20;99.90;;;;;;4993213;28;20045;-76
2022/07/07 11:43:29;;;;;;;2.60;0.20;;;17.60;99.90;;;;;;5008518;28;20134;-74
2022/07/07 11:45:55;;;;;;;1.38;0.20;;;17.50;99.90;;;;;;5009041;28;20034;-74
2022/07/07 11:48:22;;;;;;;1.00;0.20;;;17.40;99.90;;;;;;5009272;28;20091;-74
2022/07/07 11:50:49;;;;;;;1.67;0.30;;;17.60;99.90;;;;;;4985499;28;20025;-75
2022/07/07 11:53:15;;;;;;;1.27;0.20;;;17.80;99.90;;;;;;4992311;28;20042;-74
2022/07/07 11:55:42;;;;;;;1.02;0.10;;;17.70;99.90;;;;;;5009622;28;20382;-74
2022/07/07 11:58:09;;;;;;;1.50;0.20;;;18.00;99.90;;;;;;5007777;28;20044;-74
2022/07/07 12:00:37;;;;;;;1.15;0.28;;;18.10;99.90;;;;;;5006623;28;20479;-74
2022/07/07 12:03:05;;;;;;;2.25;0.43;;;18.10;99.90;;;;;;5007468;28;20381;-77
2022/07/07 12:05:33;;;;;;;2.22;0.20;;;18.20;99.90;;;;;;5014608;28;20039;-74
2022/07/07 12:08:05;;;;;;;0.73;0.10;;;18.40;99.90;;;;;;5009612;28;20033;-74
2022/07/07 12:10:49;;;;;;;1.70;0.10;;;18.50;99.90;;;;;;5009939;28;20477;-75
2022/07/07 12:13:15;;;;;;;1.70;0.20;;;18.70;99.90;;;;;;5025585;28;20029;-74
2022/07/07 12:15:48;;;;;;;1.90;0.10;;;18.60;99.90;;;;;;5009466;28;20041;-74
2022/07/07 12:18:39;;;;;;;1.23;0.10;;;18.70;99.90;;;;;;5010252;28;20079;-74
2022/07/07 12:21:06;;;;;;;3.55;0.30;;;18.90;99.90;;;;;;5008200;28;20226;-73
2022/07/07 12:23:44;;;;;;;2.08;0.25;;;19.00;99.90;;;;;;5007688;28;20046;-77
2022/07/07 12:26:20;;;;;;;2.78;0.20;;;19.10;99.90;;;;;;5009168;28;20038;-74
2022/07/07 12:28:46;;;;;;;1.00;0.10;;;19.40;99.90;;;;;;5009300;28;20041;-74
2022/07/07 12:31:20;;;;;;;1.77;0.10;;;19.70;99.90;;;;;;5011275;28;20072;-74
2022/07/07 12:33:46;;;;;;;1.35;0.20;;;19.50;99.90;;;;;;5008001;28;20040;-73
2022/07/07 12:36:17;;;;;;;2.70;0.17;;;19.20;99.90;;;;;;5002263;28;22350;-74
2022/07/07 12:38:47;;;;;;;2.60;0.10;;;19.30;99.90;;;;;;5008924;28;20533;-74
2022/07/07 12:41:42;;;;;;;0.95;0.20;;;19.90;99.90;;;;;;5009055;28;20037;-75
2022/07/07 12:44:15;;;;;;;1.25;0.20;;;19.00;99.90;;;;;;4995757;28;20078;-73
2022/07/07 12:46:42;;;;;;;2.67;0.30;;;18.90;99.90;;;;;;4989716;28;20489;-74
2022/07/07 12:49:08;;;;;;;3.22;0.17;;;18.70;99.90;;;;;;5006463;28;20057;-73
2022/07/07 12:51:34;;;;;;;2.60;0.40;;;18.50;99.90;;;;;;5008278;28;20061;-73
2022/07/07 12:54:00;;;;;;;5.20;0.30;;;18.10;99.90;;;;;;5004867;28;20117;-73